map of ZCL home
ZCL - Airport
Location
City:  Zacatecas, Zacatecas, México
Name:General Leobardo C. Ruiz International Airport
Old (Alt.):La Calera
ICAO:MMZC
IATA:ZCL

Details
Type:Airport (Aerodrome, Airfield)
Use:Public/Civil, International (customs port of entry)
Latitude:22°53'50"N (22.897112)
Longitude:102°41'13"W (-102.686889)
Datum:WGS 1984
Elevation:7141 ft (2177 m)
Variation:5.97°E (WMM2015 magnetic declination)
-0.11° annual change
Runways:2
Longest:9843 × 148 ft (3000 × 45 m), paved

Time
Time Zone:UTC-6 (DST-5)
Local Time:

Weather
METAR:MMZC 110940Z 00000KT 8SM SKC 04/02 A3036

Related Locations
Nearby:
Farthest:RRG: 11522 mi / 18544 km
Plaine Corail [Sir Gaëtan Duval Airport (Plaine Corail Airport)], Rodrigues Island, MU

Find:

   beyond  
but within

Other Information
Maps:
NOTAMs:
Links:
Sources:

  
  • flag of México
  • flag of Zacatecas
  

Sectional Chart

Flight Planning
at skyvector.com

Satellite Image

Google Maps Satellite view

 

Copyright © 2004-2018 Karl L. Swartz. All rights reserved.
The Great Circle Mapper name and logo are trademarks of the Great Circle Mapper.
All other trademarks mentioned herein belong to their respective owners.
Please see credits for attibutions and further copyright information.

  Follow gcmap on Facebook Follow gcmap on Twitter Follow gcmap on Google+ GCmap on LinkedIn

hCard Microformat

Geo Microformat